Terminal Aerodrome Forecast
Issued by NWS Shreveport, LA

Home | Current Version | Previous Version | Text Only | Print | Product List | Glossary On
Versions: 1 2 3 4 5 6 7 8 9 10 11 12 13 14 15 16 17 18
349
FTUS44 KSHV 071144
TAFELD
TAF
KELD 071144Z 0712/0812 03006KT P6SM OVC011
     FM071300 06006KT P6SM OVC015
     FM071800 07006KT P6SM OVC025
     FM080900 36008KT P6SM VCSH OVC050=

USA.gov is the U.S. government's official web portal to all federal, state and local government web resources and services.